Station: Act Pcs1  

  Atmospheric Gas Attenuation - ITU Rec 676-11   ----------------- dB/100km -----------------
Date Time Temp RH % AH g/m3 Dew Point Wind Direction Speed kph Gust kph Barometer mB Rainfall Since 9am 24GHz 47GHz 76GHz 122GHz 134GHz 241GHz
02/09 19:30 14.7 74 9.32 10.1 13 11 1013.1 0 21.1 26.8 42.2 111.0 106.8 367.9
02/09 19:20 13.9 76 9.11 9.8 20 11 1013.1 0 20.7 26.7 41.8 109.8 105.1 361.8
02/09 19:10 14 74 8.93 9.5 13 9 1013.1 0 20.3 26.4 41.0 107.7 102.5 352.9
02/09 19:00 15.1 70 9.03 9.8 13 9 1013.1 0 20.4 26.2 40.9 107.3 102.4 352.6
02/09 18:50 15.3 69 9.01 9.7 11 9 1013.1 0 20.4 26.1 40.7 106.8 101.9 350.8
02/09 18:40 15.7 67 8.96 9.7 7 6 1013.1 0 20.3 25.9 40.3 105.7 100.7 346.7
02/09 18:30 15.9 66 8.94 9.6 17 9 1013.1 0 20.2 25.8 40.1 105.3 100.2 344.9
02/09 18:20 15.9 65 8.8 9.4 17 9 1013.1 0 19.9 25.6 39.5 103.8 98.3 338.6
02/09 18:10 16 64 8.72 9.3 17 11 1013.1 0 19.7 25.4 39.2 102.8 97.2 334.5
02/09 18:00 16.1 64 8.77 9.3 17 11 1013.1 0 19.8 25.5 39.3 103.2 97.7 336.4
02/09 17:50 16.4 63 8.79 9.4 20 15 1013.1 0 19.9 25.4 39.3 103.0 97.6 336.0
02/09 17:40 16.8 61 8.72 9.2 28 19 1013.1 0 19.7 25.2 38.8 101.8 96.2 331.2
02/09 17:30 17 60 8.68 9.2 28 19 1013.1 0 19.6 25.1 38.5 101.1 95.4 328.6
02/09 17:20 17.3 59 8.69 9.2 28 19 1013.1 0 19.6 25.0 38.4 100.8 95.2 327.8
02/09 17:10 17.4 58 8.6 9 35 20 1013.1 0 19.4 24.9 38.0 99.8 94.0 323.4
02/09 17:00 17.3 57 8.4 8.9 32 22 1013.1 0 19.0 24.6 37.3 97.9 91.6 315.0
02/09 16:50 17.7 55 8.3 8.6 37 22 1013.1 0 18.8 24.3 36.8 96.4 89.9 309.1
02/09 16:40 18.5 51 8.07 8.2 41 30 1013.1 0 18.2 23.8 35.5 93.2 86.1 296.2
02/09 16:30 18.7 50 8 8.3 44 30 1013.1 0 18.1 23.6 35.2 92.2 85.1 292.5
02/09 16:20 19.1 49 8.03 8.1 41 26 1013.1 0 18.1 23.6 35.1 92.1 85.0 292.3
02/09 16:10 19.1 50 8.2 8.4 48 32 1013.1 0 18.5 23.8 35.8 93.7 87.1 299.5
02/09 15:50 18.6 49 7.8 7.8 41 30 1013.1 0 17.7 23.3 34.5 90.4 82.8 284.4
02/09 15:40 18.7 50 8 8.1 41 28 1013.1 0 18.1 23.6 35.2 92.2 85.1 292.5
02/09 15:30 18.7 50 8 8.1 35 26 1013.1 0 18.1 23.6 35.2 92.2 85.1 292.5
02/09 15:20 18.8 50 8.05 8.2 37 24 1013.1 0 18.2 23.7 35.3 92.6 85.6 294.2
02/09 15:10 19.3 50 8.29 8.6 44 32 1013.1 0 18.7 23.9 36.0 94.4 87.9 302.6
02/09 15:00 19.9 47 8.07 8.5 37 24 1013.1 0 18.2 23.4 34.9 91.6 84.6 291.1
02/09 14:50 19.4 49 8.17 8.4 41 33 1013.1 0 18.4 23.7 35.5 93.1 86.4 297.1
02/09 14:40 20 47 8.12 8.4 48 32 1013.1 0 18.3 23.5 35.1 91.9 85.1 292.8
02/09 14:30 19.7 48 8.15 8.6 48 30 1013.1 0 18.4 23.6 35.3 92.6 85.8 295.2
02/09 14:20 20.6 47 8.41 9 41 28 1013.1 0 18.9 23.7 35.9 94.0 87.9 302.7
02/09 14:10 20 47 8.12 8.5 41 26 1013.1 0 18.3 23.5 35.1 91.9 85.1 292.8
02/09 14:00 19.8 46 7.86 8.1 44 32 1013.1 0 17.7 23.1 34.2 89.6 82.3 282.7
02/09 13:50 20.3 46 8.09 8.5 48 33 1013.1 0 18.2 23.3 34.8 91.3 84.5 290.5
02/09 13:40 19.6 47 7.93 8.2 52 33 1013.1 0 17.9 23.3 34.6 90.5 83.3 286.3
02/09 13:30 20.4 45 7.96 8.3 44 30 1013.1 0 17.9 23.1 34.3 89.9 82.8 284.7
02/09 13:20 19.7 48 8.15 8.6 35 26 1013.1 0 18.4 23.6 35.3 92.6 85.8 295.2
02/09 13:10 19.2 50 8.24 8.5 37 26 1013.1 0 18.6 23.8 35.9 94.0 87.4 300.8
02/09 12:50 19 54 8.8 9.7 35 22 1013.1 0 19.8 24.7 38.0 99.8 94.5 325.6
02/09 12:40 18.6 56 8.91 9.8 37 24 1013.1 0 20.0 25.0 38.6 101.4 96.4 332.1
02/09 12:30 18.7 59 9.45 10.5 28 22 1013.1 0 21.2 25.8 40.7 106.8 103.1 355.5
02/09 12:20 19.5 56 9.4 10.5 28 20 1013.1 0 21.0 25.5 40.1 105.3 101.4 349.7
02/09 12:10 19.2 55 9.07 10.1 32 20 1013.1 0 20.3 25.1 39.0 102.3 97.6 336.5
02/09 12:00 18.9 56 9.07 9.9 35 22 1013.1 0 20.3 25.2 39.1 102.7 98.0 337.8
02/09 11:50 18 61 9.37 10.4 35 20 1013.1 0 21.0 25.9 40.7 106.9 103.0 355.0
02/09 11:40 17.6 59 8.85 9.6 35 22 1013.1 0 19.9 25.2 38.9 102.1 96.9 333.6
02/09 11:30 17.6 60 9 9.7 32 19 1013.1 0 20.3 25.4 39.5 103.6 98.8 340.3
02/09 11:20 17.9 60 9.16 10 28 19 1013.1 0 20.6 25.6 39.9 104.9 100.4 346.1
02/09 11:10 18.1 56 8.65 9.3 32 22 1013.1 0 19.5 24.8 37.9 99.4 93.7 322.7
02/09 11:00 18.2 56 8.7 9.4 35 22 1013.1 0 19.6 24.8 38.0 99.8 94.2 324.5
02/09 10:50 17.9 58 8.86 9.6 32 20 1013.1 0 19.9 25.1 38.8 101.8 96.6 332.8
02/09 10:40 17.7 58 8.75 9.3 32 20 1013.1 0 19.7 25.0 38.5 100.9 95.5 328.8
02/09 10:30 17 63 9.12 9.9 32 20 1013.1 0 20.5 25.8 40.2 105.7 101.1 348.3
02/09 10:20 16.5 62 8.71 9.3 41 26 1013.1 0 19.7 25.3 38.9 102.1 96.4 332.0
02/09 10:10 16.5 61 8.57 9.1 32 20 1013.1 0 19.4 25.1 38.3 100.6 94.7 325.7
02/09 10:00 16 64 8.72 9.2 37 22 1013.1 0 19.7 25.4 39.2 102.8 97.2 334.5
02/09 09:50 16 62 8.45 8.9 35 20 1013.1 0 19.2 25.0 38.1 100.0 93.7 322.4
02/09 09:40 15.8 63 8.48 8.8 35 24 1013.1 0 19.2 25.1 38.3 100.6 94.4 324.6
02/09 09:30 15.6 64 8.51 8.8 35 20 1013.1 0 19.3 25.2 38.5 101.1 95.0 326.8
02/09 09:20 15.4 63 8.28 8.4 37 22 1013.1 0 18.8 24.9 37.7 99.0 92.3 317.3
02/09 09:10 15.6 63 8.38 8.6 32 22 1013.1 0 19.0 25.0 38.0 99.8 93.3 320.9
02/09 09:00 15.4 62 8.15 8.3 35 24 1013.1 0 18.6 24.7 37.2 97.7 90.6 311.5
02/09 08:50 15.2 64 8.31 8.4 32 22 1013.1 0 18.9 25.0 38.0 99.6 92.9 319.4
02/09 08:40 15.2 64 8.31 8.5 32 20 1013.1 0 18.9 25.0 38.0 99.6 92.9 319.4
02/09 08:30 14.9 64 8.16 8.3 20 15 1013.1 0 18.6 24.9 37.5 98.4 91.3 313.9
02/09 08:20 14.8 66 8.36 8.5 24 15 1013.1 0 19.0 25.2 38.3 100.6 94.0 323.3
02/09 08:10 14.7 65 8.18 8.2 17 13 1013.1 0 18.7 25.0 37.7 98.8 91.8 315.6
02/09 08:00 14.6 66 8.26 8.3 20 15 1013.1 0 18.8 25.1 38.1 99.8 93.0 319.6
02/09 07:50 14.2 67 8.18 8.3 17 13 1013.1 0 18.7 25.1 37.9 99.5 92.4 317.6
02/09 07:40 13.8 68 8.1 8.1 17 11 1013.1 0 18.5 25.1 37.8 99.1 91.8 315.5
02/09 07:30 13.4 71 8.25 8.2 11 7 1013.1 0 18.9 25.4 38.6 101.2 94.3 324.0
02/09 07:20 13.1 71 8.1 8.1 7 7 1013.1 0 18.6 25.3 38.1 100.0 92.7 318.4
02/09 07:10 12.7 72 8.02 7.9 13 11 1013.1 0 18.4 25.3 38.0 99.7 92.1 316.3
02/09 07:00 12 75 7.99 7.7 13 7 1013.1 0 18.4 25.4 38.2 100.2 92.5 317.7
02/09 06:50 11.3 79 8.06 7.9 7 6 1013.1 0 18.6 25.7 38.8 101.9 94.3 323.9
02/09 06:40 11.4 79 8.11 7.9 11 7 1013.1 0 18.7 25.8 39.0 102.3 94.9 325.8
02/09 06:30 11.7 77 8.05 7.9 11 9 1013.1 0 18.5 25.6 38.6 101.3 93.7 321.7
02/09 06:20 11.7 78 8.16 8 17 11 1013.1 0 18.7 25.8 39.1 102.5 95.2 326.9
02/09 06:10 11.7 78 8.16 8.1 20 13 1013.1 0 18.7 25.8 39.1 102.5 95.2 326.9
02/09 06:00 11.9 78 8.26 8.2 20 15 1013.1 0 19.0 25.9 39.4 103.3 96.3 330.7
02/09 05:50 12.2 76 8.2 8.2 20 13 1013.1 0 18.8 25.7 39.0 102.2 95.1 326.7
02/09 05:40 12.3 76 8.25 8.3 28 17 1013.1 0 18.9 25.8 39.1 102.6 95.6 328.6
02/09 05:30 12.5 75 8.25 8.2 28 17 1013.1 0 18.9 25.7 39.0 102.4 95.4 327.7
02/09 05:20 12.3 76 8.25 8.3 20 15 1013.1 0 18.9 25.8 39.1 102.6 95.6 328.6
02/09 05:10 12.4 76 8.3 8.3 20 13 1013.1 0 19.0 25.8 39.3 103.1 96.2 330.5
02/09 05:00 12.5 75 8.25 8.3 24 15 1013.1 0 18.9 25.7 39.0 102.4 95.4 327.7
02/09 04:50 12.6 74 8.19 8.2 24 17 1013.1 0 18.8 25.6 38.7 101.6 94.5 324.5
02/09 04:40 12.7 74 8.24 8.2 20 15 1013.1 0 18.9 25.6 38.9 102.0 95.0 326.4
02/09 04:30 12.8 73 8.18 8.2 24 15 1013.1 0 18.7 25.5 38.6 101.2 94.1 323.3
02/09 04:20 12.8 74 8.29 8.4 20 13 1013.1 0 19.0 25.7 39.0 102.4 95.5 328.3
02/09 04:10 12.7 75 8.35 8.4 17 11 1013.1 0 19.1 25.8 39.3 103.2 96.5 331.6
02/09 04:00 12.4 75 8.2 8.2 11 9 1013.1 0 18.8 25.6 38.9 102.0 94.8 325.8
02/09 03:50 12.2 78 8.42 8.5 13 9 1013.1 0 19.3 26.1 39.9 104.6 98.0 337.0
02/09 03:40 12.3 77 8.36 8.5 20 15 1013.1 0 19.1 25.9 39.6 103.8 97.1 333.7
02/09 03:30 12.5 76 8.36 8.5 32 20 1013.1 0 19.1 25.9 39.5 103.6 96.8 332.9
02/09 03:20 12.6 76 8.41 8.6 24 19 1013.1 0 19.2 25.9 39.6 104.0 97.4 334.8
02/09 03:10 13 74 8.39 8.5 28 19 1013.1 0 19.2 25.8 39.3 103.2 96.6 332.1
02/09 03:00 13 73 8.28 8.4 35 22 1013.1 0 18.9 25.6 38.9 102.1 95.2 327.1
02/09 02:50 13.2 72 8.27 8.4 24 17 1013.1 0 18.9 25.5 38.8 101.7 94.8 325.8
02/09 02:40 13.3 69 7.97 7.8 20 15 1013.1 0 18.3 25.0 37.5 98.4 90.7 311.6

Last Refresh: 02-Sep-2026 19:14:17

Bureau of Meteorology